createdAt,value
2017-09-27T00:01:34.085Z,75.60
2017-09-27T00:04:00.763Z,75.70
2017-09-27T00:06:27.418Z,75.60
2017-09-27T00:08:54.095Z,75.60
2017-09-27T00:11:21.140Z,75.60
2017-09-27T00:13:48.216Z,75.60
2017-09-27T00:16:14.867Z,75.60
2017-09-27T00:18:41.555Z,75.70
2017-09-27T00:21:08.619Z,75.60
2017-09-27T00:23:35.672Z,75.60
2017-09-27T00:26:03.132Z,75.60
2017-09-27T00:28:30.424Z,75.60
2017-09-27T00:30:57.124Z,75.60
2017-09-27T00:33:24.181Z,75.60
2017-09-27T00:35:51.260Z,75.50
2017-09-27T00:38:17.912Z,75.50
2017-09-27T00:40:45.046Z,75.50
2017-09-27T00:43:11.704Z,75.50
2017-09-27T00:45:38.397Z,75.60
2017-09-27T00:48:05.057Z,75.50
2017-09-27T00:50:31.769Z,75.50
2017-09-27T00:52:58.437Z,75.50
2017-09-27T00:55:25.124Z,75.50
2017-09-27T00:57:51.808Z,75.50
2017-09-27T01:00:18.864Z,75.60
2017-09-27T01:02:45.560Z,75.60
2017-09-27T01:05:12.229Z,75.50
2017-09-27T01:07:38.916Z,75.40
2017-09-27T01:10:05.576Z,75.50
2017-09-27T01:12:32.664Z,75.50
2017-09-27T01:15:00.092Z,75.50
2017-09-27T01:20:01.318Z,75.40
2017-09-27T01:22:28.005Z,75.50
2017-09-27T01:24:54.673Z,75.40
2017-09-27T01:27:21.727Z,75.40
2017-09-27T01:29:48.812Z,75.40
2017-09-27T01:32:15.459Z,75.50
2017-09-27T01:34:42.143Z,75.40
2017-09-27T01:37:08.839Z,75.40
2017-09-27T01:39:35.540Z,75.50
2017-09-27T01:42:02.959Z,75.40
2017-09-27T01:44:29.650Z,75.40
2017-09-27T01:49:46.499Z,75.30
2017-09-27T01:52:14.114Z,75.40
2017-09-27T01:54:40.754Z,75.30
2017-09-27T01:57:07.433Z,75.30
2017-09-27T01:59:34.064Z,75.30
2017-09-27T02:02:01.150Z,75.30
2017-09-27T02:04:27.789Z,75.40
2017-09-27T02:06:54.454Z,75.30
2017-09-27T02:09:21.490Z,75.40
2017-09-27T02:11:48.163Z,75.30
2017-09-27T02:14:14.905Z,75.40
2017-09-27T02:19:32.315Z,75.20
2017-09-27T02:21:58.986Z,75.30
2017-09-27T02:24:25.946Z,75.30
2017-09-27T02:26:52.613Z,75.40
2017-09-27T02:29:19.659Z,75.30
2017-09-27T02:31:46.309Z,75.40
2017-09-27T02:34:13.003Z,75.40
2017-09-27T02:36:40.166Z,75.30
2017-09-27T02:39:06.841Z,75.30
2017-09-27T02:41:33.473Z,75.30
2017-09-27T02:44:00.144Z,75.30
2017-09-27T02:46:27.338Z,75.30
2017-09-27T02:48:54.420Z,75.30
2017-09-27T02:51:21.053Z,75.20
2017-09-27T02:53:47.702Z,75.30
2017-09-27T02:56:14.374Z,75.30
2017-09-27T02:58:41.025Z,75.20
2017-09-27T03:01:07.691Z,75.30
2017-09-27T03:03:34.734Z,75.30
2017-09-27T03:06:01.398Z,75.20
2017-09-27T03:08:28.433Z,75.30
2017-09-27T03:10:55.098Z,75.20
2017-09-27T03:13:22.509Z,75.30
2017-09-27T03:15:49.210Z,75.20
2017-09-27T03:18:15.862Z,75.00
2017-09-27T03:20:42.514Z,75.10
2017-09-27T03:23:09.182Z,75.10
2017-09-27T03:25:35.822Z,75.20
2017-09-27T03:28:02.499Z,75.30
2017-09-27T03:30:29.144Z,75.20
2017-09-27T03:32:55.821Z,75.20
2017-09-27T03:35:22.458Z,75.10
2017-09-27T03:37:49.132Z,75.20
2017-09-27T03:40:16.174Z,75.20
2017-09-27T03:42:44.367Z,75.20
2017-09-27T03:45:11.737Z,75.20
2017-09-27T03:47:42.657Z,75.00
2017-09-27T03:50:09.693Z,75.10
2017-09-27T03:52:36.748Z,75.10
2017-09-27T03:55:03.417Z,75.10
2017-09-27T03:57:30.068Z,75.20
2017-09-27T03:59:56.729Z,75.10
2017-09-27T04:02:23.762Z,75.20
2017-09-27T04:04:50.443Z,75.10
2017-09-27T04:07:17.093Z,75.10
2017-09-27T04:09:43.770Z,75.00
2017-09-27T04:12:10.418Z,75.10
2017-09-27T04:14:37.086Z,75.10
2017-09-27T04:19:53.918Z,75.00
2017-09-27T04:22:20.565Z,75.10
2017-09-27T04:24:47.230Z,75.10
2017-09-27T04:27:14.295Z,75.00
2017-09-27T04:29:41.339Z,75.10
2017-09-27T04:32:08.409Z,75.00
2017-09-27T04:34:35.451Z,75.00
2017-09-27T04:37:02.637Z,75.10
2017-09-27T04:39:29.298Z,75.00
2017-09-27T04:41:55.965Z,74.90
2017-09-27T04:44:22.605Z,74.90
2017-09-27T04:46:49.317Z,75.00
2017-09-27T04:49:15.949Z,74.70
2017-09-27T04:51:42.598Z,74.70
2017-09-27T04:54:09.262Z,74.80
2017-09-27T04:56:35.909Z,74.60
2017-09-27T04:59:02.571Z,74.80
2017-09-27T05:01:29.606Z,74.90
2017-09-27T05:03:57.053Z,74.60
2017-09-27T05:06:23.693Z,74.70
2017-09-27T05:08:50.757Z,74.70
2017-09-27T05:11:17.898Z,74.50
2017-09-27T05:13:44.580Z,74.60
2017-09-27T05:16:11.217Z,74.50
2017-09-27T05:18:39.206Z,74.40
2017-09-27T05:21:05.885Z,74.40
2017-09-27T05:23:32.926Z,74.60
2017-09-27T05:25:59.618Z,74.60
2017-09-27T05:28:26.257Z,74.40
2017-09-27T05:30:52.926Z,74.60
2017-09-27T05:33:19.567Z,74.40
2017-09-27T05:35:46.233Z,74.40
2017-09-27T05:38:12.877Z,74.40
2017-09-27T05:40:39.545Z,74.40
2017-09-27T05:43:06.192Z,74.40
2017-09-27T05:45:33.239Z,74.50
2017-09-27T05:47:59.917Z,74.00
2017-09-27T05:50:27.031Z,74.40
2017-09-27T05:52:53.697Z,74.30
2017-09-27T05:55:20.330Z,74.30
2017-09-27T05:57:47.020Z,74.50
2017-09-27T06:00:13.665Z,74.40
2017-09-27T06:02:40.339Z,74.40
2017-09-27T06:05:06.985Z,74.30
2017-09-27T06:07:33.646Z,74.20
2017-09-27T06:10:00.301Z,74.20
2017-09-27T06:12:26.977Z,74.50
2017-09-27T06:14:53.613Z,74.20
2017-09-27T06:20:09.039Z,74.20
2017-09-27T06:22:35.686Z,74.10
2017-09-27T06:25:02.350Z,74.20
2017-09-27T06:27:28.989Z,74.20
2017-09-27T06:29:55.665Z,74.30
2017-09-27T06:32:22.322Z,74.30
2017-09-27T06:34:48.985Z,74.20
2017-09-27T06:37:15.620Z,74.20
2017-09-27T06:39:42.316Z,74.30
2017-09-27T06:42:08.965Z,74.50
2017-09-27T06:44:35.602Z,74.40
2017-09-27T06:49:52.875Z,74.50
2017-09-27T06:52:19.694Z,74.30
2017-09-27T06:54:46.334Z,74.20
2017-09-27T06:57:13.010Z,74.20
2017-09-27T06:59:39.645Z,74.30
2017-09-27T07:02:06.326Z,74.40
2017-09-27T07:04:32.966Z,74.30
2017-09-27T07:07:00.383Z,74.40
2017-09-27T07:09:27.055Z,74.50
2017-09-27T07:11:53.695Z,74.40
2017-09-27T07:14:20.369Z,74.50
2017-09-27T07:19:37.297Z,74.40
2017-09-27T07:22:03.949Z,74.60
2017-09-27T07:24:30.613Z,74.50
2017-09-27T07:26:57.262Z,74.70
2017-09-27T07:29:23.937Z,74.60
2017-09-27T07:31:50.582Z,74.70
2017-09-27T07:34:17.231Z,74.70
2017-09-27T07:36:43.925Z,74.70
2017-09-27T07:39:10.565Z,74.60
2017-09-27T07:41:37.233Z,74.60
2017-09-27T07:44:03.873Z,74.70
2017-09-27T07:46:30.960Z,74.70
2017-09-27T07:48:57.601Z,74.60
2017-09-27T07:51:24.287Z,74.60
2017-09-27T07:53:50.949Z,74.70
2017-09-27T07:56:17.597Z,74.80
2017-09-27T07:58:44.816Z,74.80
2017-09-27T08:01:11.452Z,74.80
2017-09-27T08:03:38.113Z,74.80
2017-09-27T08:06:04.759Z,74.80
2017-09-27T08:08:31.834Z,74.80
2017-09-27T08:10:58.485Z,74.80
2017-09-27T08:13:25.154Z,74.90
2017-09-27T08:15:51.798Z,74.90
2017-09-27T08:18:18.486Z,74.70
2017-09-27T08:20:45.130Z,74.80
2017-09-27T08:23:11.791Z,74.90
2017-09-27T08:25:38.469Z,74.80
2017-09-27T08:28:05.165Z,74.80
2017-09-27T08:30:31.837Z,74.90
2017-09-27T08:32:58.483Z,74.90
2017-09-27T08:35:25.913Z,74.90
2017-09-27T08:37:52.561Z,74.80
2017-09-27T08:40:20.006Z,74.80
2017-09-27T08:42:46.649Z,74.80
2017-09-27T08:45:13.340Z,74.80
2017-09-27T08:47:50.006Z,74.70
2017-09-27T08:50:16.706Z,74.70
2017-09-27T08:52:44.122Z,74.80
2017-09-27T08:55:10.769Z,74.80
2017-09-27T08:57:37.445Z,74.80
2017-09-27T09:00:04.490Z,74.80
2017-09-27T09:02:31.294Z,74.80
2017-09-27T09:04:57.950Z,74.70
2017-09-27T09:07:24.639Z,74.70
2017-09-27T09:09:51.302Z,74.70
2017-09-27T09:12:17.974Z,74.70
2017-09-27T09:14:44.618Z,74.70
2017-09-27T09:20:02.333Z,74.60
2017-09-27T09:22:29.025Z,74.70
2017-09-27T09:24:55.673Z,74.70
2017-09-27T09:27:22.346Z,74.70
2017-09-27T09:29:49.018Z,74.60
2017-09-27T09:32:15.660Z,74.70
2017-09-27T09:34:42.356Z,74.70
2017-09-27T09:37:09.008Z,74.70
2017-09-27T09:39:35.682Z,74.70
2017-09-27T09:42:02.334Z,74.70
2017-09-27T09:44:28.998Z,74.70
2017-09-27T09:49:44.498Z,74.60
2017-09-27T09:52:11.141Z,74.60
2017-09-27T09:54:37.810Z,74.60
2017-09-27T09:57:04.881Z,74.70
2017-09-27T09:59:31.530Z,74.70
2017-09-27T10:01:58.202Z,74.70
2017-09-27T10:04:24.854Z,74.70
2017-09-27T10:06:51.919Z,74.70
2017-09-27T10:09:19.496Z,74.70
2017-09-27T10:11:46.168Z,74.70
2017-09-27T10:14:12.829Z,74.70
2017-09-27T10:16:39.527Z,74.70
2017-09-27T10:19:06.569Z,74.60
2017-09-27T10:21:33.205Z,74.60
2017-09-27T10:23:59.873Z,74.70
2017-09-27T10:26:26.513Z,74.70
2017-09-27T10:28:53.186Z,74.70
2017-09-27T10:31:19.847Z,74.70
2017-09-27T10:33:46.514Z,74.70
2017-09-27T10:36:13.162Z,74.70
2017-09-27T10:38:39.849Z,74.70
2017-09-27T10:41:06.491Z,74.70
2017-09-27T10:43:33.167Z,74.80
2017-09-27T10:45:59.834Z,74.80
2017-09-27T10:48:26.480Z,74.60
2017-09-27T10:50:53.558Z,74.70
2017-09-27T10:53:20.198Z,74.80
2017-09-27T10:55:46.876Z,74.80
2017-09-27T10:58:13.522Z,74.80
2017-09-27T11:00:40.221Z,74.80
2017-09-27T11:03:06.862Z,74.90
2017-09-27T11:05:33.541Z,74.90
2017-09-27T11:08:00.185Z,74.90
2017-09-27T11:10:27.605Z,74.90
2017-09-27T11:12:54.278Z,74.90
2017-09-27T11:15:20.930Z,75.00
2017-09-27T11:17:47.594Z,75.00
2017-09-27T11:20:14.247Z,75.00
2017-09-27T11:22:40.918Z,75.00
2017-09-27T11:25:07.562Z,75.10
2017-09-27T11:27:35.245Z,75.10
2017-09-27T11:30:01.888Z,75.10
2017-09-27T11:32:28.588Z,75.10
2017-09-27T11:34:55.626Z,75.20
2017-09-27T11:37:22.285Z,75.20
2017-09-27T11:39:48.954Z,75.20
2017-09-27T11:42:15.605Z,75.20
2017-09-27T11:44:42.278Z,75.30
2017-09-27T11:47:08.921Z,75.30
2017-09-27T11:49:35.589Z,75.30
2017-09-27T11:52:02.631Z,75.30
2017-09-27T11:54:29.306Z,75.40
2017-09-27T11:56:55.977Z,75.50
2017-09-27T11:59:22.766Z,75.50
2017-09-27T12:01:49.403Z,75.50
2017-09-27T12:04:16.045Z,75.50
2017-09-27T12:06:42.705Z,75.60
2017-09-27T12:09:09.737Z,75.60
2017-09-27T12:11:36.797Z,75.70
2017-09-27T12:14:03.842Z,75.70
2017-09-27T12:16:30.922Z,75.80
2017-09-27T12:18:58.338Z,75.60
2017-09-27T12:21:25.006Z,75.60
2017-09-27T12:23:51.650Z,75.80
2017-09-27T12:26:18.338Z,75.90
2017-09-27T12:28:44.977Z,75.90
2017-09-27T12:31:11.639Z,76.10
2017-09-27T12:33:38.702Z,76.00
2017-09-27T12:36:05.353Z,76.00
2017-09-27T12:38:32.411Z,76.10
2017-09-27T12:40:59.477Z,76.10
2017-09-27T12:43:26.146Z,76.20
2017-09-27T12:45:52.798Z,76.20
2017-09-27T12:48:19.479Z,76.30
2017-09-27T12:50:46.129Z,76.30
2017-09-27T12:53:12.821Z,76.30
2017-09-27T12:55:39.474Z,76.30
2017-09-27T12:58:06.518Z,76.40
2017-09-27T13:00:33.186Z,76.40
2017-09-27T13:03:00.217Z,76.40
2017-09-27T13:05:27.287Z,76.50
2017-09-27T13:07:53.933Z,76.40
2017-09-27T13:10:20.598Z,76.50
2017-09-27T13:12:47.236Z,76.50
2017-09-27T13:15:13.917Z,76.50
2017-09-27T13:20:21.131Z,76.60
2017-09-27T13:22:48.176Z,76.60
2017-09-27T13:25:15.237Z,76.70
2017-09-27T13:27:41.901Z,76.60
2017-09-27T13:30:08.598Z,76.70
2017-09-27T13:32:35.250Z,76.80
2017-09-27T13:35:01.894Z,76.80
2017-09-27T13:37:28.575Z,76.80
2017-09-27T13:39:55.210Z,76.90
2017-09-27T13:42:21.874Z,76.90
2017-09-27T13:44:48.510Z,76.90
2017-09-27T13:47:15.200Z,77.00
2017-09-27T13:49:42.234Z,77.00
2017-09-27T13:52:08.914Z,76.90
2017-09-27T13:54:35.590Z,77.00
2017-09-27T13:57:02.271Z,77.00
2017-09-27T13:59:29.340Z,77.10
2017-09-27T14:01:55.980Z,77.20
2017-09-27T14:04:22.650Z,77.10
2017-09-27T14:06:49.297Z,77.10
2017-09-27T14:09:15.965Z,77.10
2017-09-27T14:11:42.606Z,77.20
2017-09-27T14:14:09.277Z,77.20
2017-09-27T14:16:35.915Z,77.20
2017-09-27T14:19:03.001Z,77.10
2017-09-27T14:21:29.646Z,77.10
2017-09-27T14:23:56.294Z,77.20
2017-09-27T14:26:22.958Z,77.30
2017-09-27T14:28:49.597Z,77.30
2017-09-27T14:31:16.274Z,77.30
2017-09-27T14:33:42.937Z,77.30
2017-09-27T14:36:09.594Z,77.30
2017-09-27T14:38:36.229Z,77.30
2017-09-27T14:41:02.889Z,77.40
2017-09-27T14:43:29.546Z,77.40
2017-09-27T14:45:56.237Z,77.40
2017-09-27T14:48:23.652Z,77.10
2017-09-27T14:50:50.963Z,77.30
2017-09-27T14:53:17.610Z,77.30
2017-09-27T14:55:44.338Z,77.30
2017-09-27T14:58:10.983Z,77.40
2017-09-27T15:00:37.631Z,77.40
2017-09-27T15:03:04.307Z,77.30
2017-09-27T15:05:31.359Z,77.40
2017-09-27T15:07:58.421Z,77.40
2017-09-27T15:10:25.075Z,77.40
2017-09-27T15:12:51.749Z,77.40
2017-09-27T15:15:18.392Z,77.50
2017-09-27T15:17:45.066Z,77.40
2017-09-27T15:20:11.713Z,77.40
2017-09-27T15:22:38.410Z,77.40
2017-09-27T15:25:05.085Z,77.40
2017-09-27T15:27:32.446Z,77.40
2017-09-27T15:30:00.250Z,77.40
2017-09-27T15:32:27.277Z,77.50
2017-09-27T15:34:53.949Z,77.40
2017-09-27T15:37:20.589Z,77.40
2017-09-27T15:39:47.274Z,77.30
2017-09-27T15:42:13.919Z,77.40
2017-09-27T15:44:40.606Z,77.40
2017-09-27T15:47:07.265Z,77.30
2017-09-27T15:49:33.916Z,77.40
2017-09-27T15:52:00.581Z,77.30
2017-09-27T15:54:27.230Z,77.30
2017-09-27T15:56:54.297Z,77.30
2017-09-27T15:59:20.948Z,77.30
2017-09-27T16:01:47.630Z,77.30
2017-09-27T16:04:14.263Z,77.40
2017-09-27T16:06:40.950Z,77.30
2017-09-27T16:09:07.609Z,77.30
2017-09-27T16:11:34.250Z,77.30
2017-09-27T16:14:00.922Z,77.30
2017-09-27T16:16:27.571Z,77.30
2017-09-27T16:18:54.246Z,77.30
2017-09-27T16:21:20.885Z,77.30
2017-09-27T16:23:47.556Z,77.30
2017-09-27T16:26:14.225Z,77.30
2017-09-27T16:28:41.826Z,77.30
2017-09-27T16:31:09.234Z,77.30
2017-09-27T16:33:35.874Z,77.30
2017-09-27T16:38:30.849Z,77.30
2017-09-27T16:40:57.511Z,77.30
2017-09-27T16:43:24.160Z,77.30
2017-09-27T16:45:50.848Z,77.30
2017-09-27T16:48:17.498Z,77.30
2017-09-27T16:50:44.242Z,77.30
2017-09-27T16:53:10.884Z,77.30
2017-09-27T16:55:37.531Z,77.20
2017-09-27T16:58:04.677Z,77.30
2017-09-27T17:00:31.717Z,77.30
2017-09-27T17:02:58.397Z,77.30
2017-09-27T17:05:25.063Z,77.30
2017-09-27T17:07:51.758Z,77.20
2017-09-27T17:10:18.399Z,77.30
2017-09-27T17:12:45.814Z,77.20
2017-09-27T17:15:12.481Z,77.20
2017-09-27T17:20:24.739Z,77.20
2017-09-27T17:22:52.089Z,77.20
2017-09-27T17:25:18.770Z,77.20
2017-09-27T17:27:45.423Z,77.20
2017-09-27T17:30:12.733Z,77.20
2017-09-27T17:32:39.770Z,77.20
2017-09-27T17:35:06.434Z,77.20
2017-09-27T17:37:33.067Z,77.20
2017-09-27T17:39:59.706Z,77.20
2017-09-27T17:42:26.374Z,77.20
2017-09-27T17:44:53.013Z,77.20
2017-09-27T17:47:19.689Z,77.20
2017-09-27T17:49:46.330Z,77.20
2017-09-27T17:52:13.022Z,77.20
2017-09-27T17:54:39.673Z,77.20
2017-09-27T17:57:06.326Z,77.20
2017-09-27T17:59:32.989Z,77.20
2017-09-27T18:01:59.635Z,77.20
2017-09-27T18:04:31.862Z,77.10
2017-09-27T18:07:16.185Z,77.10
2017-09-27T18:09:57.794Z,77.10
2017-09-27T18:12:30.197Z,77.10
2017-09-27T18:15:15.657Z,77.10
2017-09-27T18:20:27.834Z,77.00
2017-09-27T18:22:54.485Z,77.00
2017-09-27T18:25:21.862Z,77.00
2017-09-27T18:27:48.498Z,77.00
2017-09-27T18:30:15.170Z,77.00
2017-09-27T18:32:41.836Z,77.00
2017-09-27T18:35:08.497Z,77.00
2017-09-27T18:37:35.934Z,77.00
2017-09-27T18:40:02.586Z,77.00
2017-09-27T18:42:29.673Z,77.00
2017-09-27T18:44:56.313Z,76.90
2017-09-27T18:47:22.977Z,76.90
2017-09-27T18:49:49.618Z,76.90
2017-09-27T18:52:16.285Z,76.90
2017-09-27T18:54:42.932Z,76.90
2017-09-27T18:57:09.617Z,76.90
2017-09-27T18:59:36.257Z,76.90
2017-09-27T19:02:02.898Z,76.90
2017-09-27T19:04:29.571Z,76.90
2017-09-27T19:06:56.218Z,76.80
2017-09-27T19:09:22.906Z,76.80
2017-09-27T19:11:49.547Z,76.80
2017-09-27T19:14:16.746Z,76.80
2017-09-27T19:16:43.394Z,76.80
2017-09-27T19:19:10.045Z,76.80
2017-09-27T19:21:36.725Z,76.80
2017-09-27T19:24:03.374Z,76.80
2017-09-27T19:26:30.052Z,76.80
2017-09-27T19:28:56.713Z,76.80
2017-09-27T19:31:23.570Z,76.80
2017-09-27T19:33:50.985Z,76.80
2017-09-27T19:38:47.290Z,76.70
2017-09-27T19:41:13.942Z,76.70
2017-09-27T19:43:40.602Z,76.70
2017-09-27T19:46:07.245Z,76.70
2017-09-27T19:48:33.934Z,76.50
2017-09-27T19:51:00.974Z,76.70
2017-09-27T19:53:27.651Z,76.60
2017-09-27T19:55:54.701Z,76.70
2017-09-27T19:58:21.382Z,76.70
2017-09-27T20:00:48.031Z,76.70
2017-09-27T20:03:14.691Z,76.70
2017-09-27T20:05:41.970Z,76.70
2017-09-27T20:08:08.650Z,76.70
2017-09-27T20:10:35.326Z,76.60
2017-09-27T20:13:01.962Z,76.60
2017-09-27T20:15:28.633Z,76.70
2017-09-27T20:17:55.282Z,76.60
2017-09-27T20:20:21.949Z,76.60
2017-09-27T20:22:48.590Z,76.60
2017-09-27T20:25:15.275Z,76.60
2017-09-27T20:27:42.313Z,76.60
2017-09-27T20:30:08.955Z,76.60
2017-09-27T20:32:35.630Z,76.60
2017-09-27T20:35:02.285Z,76.60
2017-09-27T20:37:28.949Z,76.60
2017-09-27T20:39:55.605Z,76.60
2017-09-27T20:42:22.273Z,76.60
2017-09-27T20:44:48.944Z,76.60
2017-09-27T20:47:15.614Z,76.60
2017-09-27T20:49:42.253Z,76.60
2017-09-27T20:52:08.885Z,76.50
2017-09-27T20:54:35.557Z,76.50
2017-09-27T20:57:02.203Z,76.50
2017-09-27T20:59:29.269Z,76.50
2017-09-27T21:01:56.302Z,76.50
2017-09-27T21:04:23.361Z,76.50
2017-09-27T21:06:50.011Z,76.50
2017-09-27T21:09:17.091Z,76.50
2017-09-27T21:11:43.738Z,76.50
2017-09-27T21:14:11.150Z,76.50
2017-09-27T21:16:37.817Z,76.50
2017-09-27T21:19:06.390Z,76.50
2017-09-27T21:21:33.055Z,76.50
2017-09-27T21:23:59.706Z,76.50
2017-09-27T21:26:26.376Z,76.50
2017-09-27T21:28:53.033Z,76.50
2017-09-27T21:31:20.114Z,76.50
2017-09-27T21:33:46.753Z,76.50
2017-09-27T21:36:14.411Z,76.40
2017-09-27T21:38:41.073Z,76.40
2017-09-27T21:41:07.709Z,76.40
2017-09-27T21:43:34.366Z,76.40
2017-09-27T21:46:01.007Z,76.40
2017-09-27T21:48:28.089Z,76.40
2017-09-27T21:50:54.734Z,76.40
2017-09-27T21:53:21.402Z,76.40
2017-09-27T21:55:48.439Z,76.40
2017-09-27T21:58:15.121Z,76.40
2017-09-27T22:00:41.761Z,76.40
2017-09-27T22:03:08.406Z,76.40
2017-09-27T22:05:35.082Z,76.40
2017-09-27T22:08:01.753Z,76.30
2017-09-27T22:10:28.425Z,76.30
2017-09-27T22:12:55.065Z,76.30
2017-09-27T22:15:21.741Z,76.30
2017-09-27T22:20:28.614Z,76.30
2017-09-27T22:22:55.245Z,76.30
2017-09-27T22:25:21.947Z,76.30
2017-09-27T22:27:49.272Z,76.30
2017-09-27T22:30:16.738Z,76.30
2017-09-27T22:32:43.407Z,76.30
2017-09-27T22:35:10.051Z,76.30
2017-09-27T22:37:36.717Z,76.20
2017-09-27T22:40:03.361Z,76.20
2017-09-27T22:42:30.793Z,76.30
2017-09-27T22:44:57.439Z,76.30
2017-09-27T22:47:24.869Z,76.20
2017-09-27T22:49:51.921Z,76.30
2017-09-27T22:52:19.359Z,76.20
2017-09-27T22:54:46.003Z,76.20
2017-09-27T22:57:12.641Z,76.20
2017-09-27T22:59:39.313Z,76.20
2017-09-27T23:02:05.952Z,76.20
2017-09-27T23:04:33.308Z,76.20
2017-09-27T23:06:59.953Z,76.20
2017-09-27T23:09:26.609Z,76.20
2017-09-27T23:11:53.249Z,76.20
2017-09-27T23:14:19.914Z,76.20
2017-09-27T23:16:46.554Z,76.20
2017-09-27T23:19:13.217Z,76.00
2017-09-27T23:21:40.262Z,76.10
2017-09-27T23:24:06.906Z,76.10
2017-09-27T23:26:33.585Z,76.10
2017-09-27T23:29:00.225Z,76.10
2017-09-27T23:31:26.893Z,76.10
2017-09-27T23:33:53.534Z,76.10
2017-09-27T23:36:20.208Z,76.10
2017-09-27T23:38:47.249Z,76.10
2017-09-27T23:41:13.935Z,76.10
2017-09-27T23:43:40.577Z,76.10
2017-09-27T23:46:07.222Z,76.10
2017-09-27T23:48:33.903Z,76.10
2017-09-27T23:51:00.542Z,76.10
2017-09-27T23:53:27.610Z,76.10
2017-09-27T23:55:54.246Z,76.00
2017-09-27T23:58:20.958Z,76.10
